createdAt,value
2023-04-27T00:01:46.344Z,100187.06
2023-04-27T00:04:14.419Z,100188.56
2023-04-27T00:06:43.444Z,100184.47
2023-04-27T00:09:11.516Z,100186.41
2023-04-27T00:11:39.303Z,100190.66
2023-04-27T00:14:06.975Z,100191.59
2023-04-27T00:16:34.527Z,100186.97
2023-04-27T00:19:02.092Z,100185.56
2023-04-27T00:21:29.576Z,100190.53
2023-04-27T00:23:58.389Z,100188.44
2023-04-27T00:26:26.732Z,100189.63
2023-04-27T00:28:54.215Z,100192.16
2023-04-27T00:31:21.734Z,100194.88
2023-04-27T00:33:49.297Z,100189.75
2023-04-27T00:36:16.785Z,100194.03
2023-04-27T00:38:44.248Z,100195.09
2023-04-27T00:41:13.069Z,100193.34
2023-04-27T00:43:44.577Z,100196.84
2023-04-27T00:46:13.840Z,100200.34
2023-04-27T00:48:42.072Z,100199.97
2023-04-27T00:51:09.663Z,100198.25
2023-04-27T00:53:37.487Z,100197.66
2023-04-27T00:56:05.806Z,100204.66
2023-04-27T00:58:34.694Z,100208.19
2023-04-27T01:01:03.649Z,100213.72
2023-04-27T01:03:31.709Z,100210.16
2023-04-27T01:06:01.443Z,100207.56
2023-04-27T01:08:29.404Z,100213.69
2023-04-27T01:10:57.058Z,100225.47
2023-04-27T01:13:24.626Z,100223.66
2023-04-27T01:15:53.358Z,100213.09
2023-04-27T01:18:20.788Z,100220.94
2023-04-27T01:20:48.731Z,100213.78
2023-04-27T01:23:17.741Z,100218.28
2023-04-27T01:25:45.342Z,100212.78
2023-04-27T01:28:12.893Z,100210.94
2023-04-27T01:30:40.326Z,100216.16
2023-04-27T01:33:07.816Z,100213.31
2023-04-27T01:35:35.401Z,100221.97
2023-04-27T01:38:02.886Z,100222.66
2023-04-27T01:40:31.684Z,100225.28
2023-04-27T01:42:59.153Z,100223.44
2023-04-27T01:45:26.699Z,100212.78
2023-04-27T01:47:54.510Z,100218.28
2023-04-27T01:50:22.291Z,100225.63
2023-04-27T01:52:49.773Z,100232.66
2023-04-27T01:55:17.389Z,100230.06
2023-04-27T01:57:46.692Z,100229.22
2023-04-27T02:00:15.551Z,100235.31
2023-04-27T02:02:43.123Z,100232.66
2023-04-27T02:05:10.767Z,100239.06
2023-04-27T02:07:38.226Z,100238.94
2023-04-27T02:10:06.942Z,100235.34
2023-04-27T02:12:34.384Z,100245.75
2023-04-27T02:15:03.597Z,100242.34
2023-04-27T02:17:31.606Z,100252.31
2023-04-27T02:19:59.372Z,100252.41
2023-04-27T02:22:26.863Z,100246.91
2023-04-27T02:24:54.341Z,100252.44
2023-04-27T02:27:21.790Z,100247.16
2023-04-27T02:29:49.654Z,100242.00
2023-04-27T02:32:18.857Z,100240.84
2023-04-27T02:34:46.413Z,100227.03
2023-04-27T02:37:13.856Z,100236.03
2023-04-27T02:39:41.274Z,100232.63
2023-04-27T02:42:08.704Z,100239.00
2023-04-27T02:44:36.230Z,100234.66
2023-04-27T02:47:03.804Z,100238.75
2023-04-27T02:49:32.854Z,100233.34
2023-04-27T02:52:00.425Z,100226.38
2023-04-27T02:54:27.894Z,100227.41
2023-04-27T02:56:55.409Z,100229.16
2023-04-27T02:59:22.861Z,100232.75
2023-04-27T03:01:50.309Z,100234.38
2023-04-27T03:04:17.969Z,100234.63
2023-04-27T03:06:47.064Z,100234.03
2023-04-27T03:09:15.249Z,100233.31
2023-04-27T03:11:43.069Z,100229.69
2023-04-27T03:14:10.547Z,100231.16
2023-04-27T03:16:38.065Z,100221.44
2023-04-27T03:19:05.592Z,100214.97
2023-04-27T03:21:33.082Z,100214.91
2023-04-27T03:24:01.891Z,100213.94
2023-04-27T03:26:29.352Z,100209.84
2023-04-27T03:28:56.832Z,100209.16
2023-04-27T03:31:24.396Z,100204.59
2023-04-27T03:33:51.913Z,100209.84
2023-04-27T03:36:19.415Z,100214.00
2023-04-27T03:38:47.041Z,100213.00
2023-04-27T03:41:15.823Z,100215.06
2023-04-27T03:43:43.297Z,100214.88
2023-04-27T03:46:10.831Z,100224.56
2023-04-27T03:48:38.354Z,100227.22
2023-04-27T03:51:06.663Z,100227.31
2023-04-27T03:53:34.597Z,100230.03
2023-04-27T03:56:03.169Z,100235.94
2023-04-27T03:58:31.988Z,100233.41
2023-04-27T04:00:59.433Z,100235.56
2023-04-27T04:03:27.015Z,100233.38
2023-04-27T04:05:54.589Z,100237.09
2023-04-27T04:08:22.066Z,100233.94
2023-04-27T04:10:49.528Z,100246.09
2023-04-27T04:13:17.048Z,100241.38
2023-04-27T04:15:45.947Z,100242.25
2023-04-27T04:18:13.447Z,100243.78
2023-04-27T04:20:40.916Z,100247.22
2023-04-27T04:23:08.377Z,100251.97
2023-04-27T04:25:36.273Z,100254.41
2023-04-27T04:28:03.752Z,100256.50
2023-04-27T04:30:31.218Z,100254.38
2023-04-27T04:33:00.102Z,100252.03
2023-04-27T04:35:27.652Z,100259.50
2023-04-27T04:37:55.144Z,100257.81
2023-04-27T04:40:22.702Z,100254.63
2023-04-27T04:42:50.171Z,100257.81
2023-04-27T04:45:18.467Z,100253.47
2023-04-27T04:47:47.409Z,100252.44
2023-04-27T04:50:16.490Z,100245.09
2023-04-27T04:52:43.943Z,100249.38
2023-04-27T04:55:11.713Z,100251.41
2023-04-27T04:57:39.218Z,100250.91
2023-04-27T05:00:11.452Z,100247.47
2023-04-27T05:02:39.253Z,100256.19
2023-04-27T05:05:07.224Z,100253.44
2023-04-27T05:07:36.372Z,100252.53
2023-04-27T05:10:04.216Z,100246.06
2023-04-27T05:12:31.670Z,100251.13
2023-04-27T05:14:59.159Z,100252.53
2023-04-27T05:17:27.382Z,100258.72
2023-04-27T05:19:54.903Z,100260.38
2023-04-27T05:22:22.442Z,100263.59
2023-04-27T05:24:51.813Z,100264.03
2023-04-27T05:27:19.290Z,100264.56
2023-04-27T05:29:46.886Z,100271.88
2023-04-27T05:32:14.326Z,100267.13
2023-04-27T05:34:43.694Z,100272.28
2023-04-27T05:37:11.574Z,100277.66
2023-04-27T05:39:39.959Z,100271.84
2023-04-27T05:42:08.774Z,100279.28
2023-04-27T05:44:36.257Z,100288.91
2023-04-27T05:47:03.731Z,100293.81
2023-04-27T05:49:31.510Z,100292.50
2023-04-27T05:51:59.815Z,100289.91
2023-04-27T05:54:27.461Z,100283.84
2023-04-27T05:56:55.022Z,100296.28
2023-04-27T05:59:23.927Z,100300.78
2023-04-27T06:01:51.485Z,100302.53
2023-04-27T06:04:19.145Z,100305.28
2023-04-27T06:06:46.682Z,100305.72
2023-04-27T06:09:14.845Z,100305.06
2023-04-27T06:11:42.661Z,100308.47
2023-04-27T06:14:10.595Z,100307.38
2023-04-27T06:16:40.505Z,100305.63
2023-04-27T06:19:08.062Z,100310.50
2023-04-27T06:21:36.342Z,100303.06
2023-04-27T06:24:03.936Z,100306.66
2023-04-27T06:26:31.464Z,100305.16
2023-04-27T06:28:59.239Z,100304.53
2023-04-27T06:31:27.012Z,100307.19
2023-04-27T06:33:55.860Z,100300.50
2023-04-27T06:36:23.831Z,100304.16
2023-04-27T06:38:55.537Z,100300.91
2023-04-27T06:41:23.223Z,100300.00
2023-04-27T06:43:50.766Z,100302.63
2023-04-27T06:46:18.730Z,100306.16
2023-04-27T06:48:46.335Z,100303.03
2023-04-27T06:51:16.331Z,100295.84
2023-04-27T06:53:44.213Z,100292.28
2023-04-27T06:56:13.259Z,100298.72
2023-04-27T06:58:41.128Z,100305.19
2023-04-27T07:01:08.674Z,100291.97
2023-04-27T07:03:36.962Z,100295.91
2023-04-27T07:06:05.013Z,100294.44
2023-04-27T07:08:34.046Z,100284.25
2023-04-27T07:11:01.610Z,100284.56
2023-04-27T07:13:29.804Z,100286.97
2023-04-27T07:15:58.496Z,100288.66
2023-04-27T07:18:28.022Z,100284.13
2023-04-27T07:20:55.718Z,100287.81
2023-04-27T07:23:23.662Z,100280.34
2023-04-27T07:25:52.737Z,100280.56
2023-04-27T07:28:20.173Z,100291.09
2023-04-27T07:30:47.756Z,100289.09
2023-04-27T07:33:15.609Z,100286.19
2023-04-27T07:35:43.120Z,100289.59
2023-04-27T07:38:10.633Z,100284.41
2023-04-27T07:40:38.302Z,100288.03
2023-04-27T07:43:07.173Z,100289.72
2023-04-27T07:45:37.198Z,100275.56
2023-04-27T07:48:04.975Z,100289.59
2023-04-27T07:50:32.952Z,100290.50
2023-04-27T07:53:00.721Z,100291.72
2023-04-27T07:55:29.422Z,100288.16
2023-04-27T07:57:57.716Z,100291.75
2023-04-27T08:00:27.750Z,100289.78
2023-04-27T08:02:55.732Z,100294.19
2023-04-27T08:05:23.988Z,100295.59
2023-04-27T08:07:53.453Z,100296.47
2023-04-27T08:10:22.264Z,100292.34
2023-04-27T08:12:49.891Z,100292.22
2023-04-27T08:15:17.382Z,100293.47
2023-04-27T08:17:47.216Z,100291.16
2023-04-27T08:20:14.840Z,100283.38
2023-04-27T08:22:43.070Z,100286.97
2023-04-27T08:25:10.948Z,100291.97
2023-04-27T08:27:39.010Z,100288.09
2023-04-27T08:30:07.798Z,100286.03
2023-04-27T08:32:35.511Z,100285.44
2023-04-27T08:35:04.771Z,100286.34
2023-04-27T08:37:32.735Z,100285.25
2023-04-27T08:40:00.251Z,100271.34
2023-04-27T08:42:27.823Z,100270.03
2023-04-27T08:44:55.324Z,100268.22
2023-04-27T08:47:31.441Z,100272.63
2023-04-27T08:50:11.502Z,100265.75
2023-04-27T08:52:39.054Z,100271.63
2023-04-27T08:55:08.349Z,100258.78
2023-04-27T08:57:35.817Z,100263.59
2023-04-27T09:00:07.583Z,100276.69
2023-04-27T09:02:35.360Z,100267.50
2023-04-27T09:05:04.052Z,100266.75
2023-04-27T09:07:33.300Z,100267.50
2023-04-27T09:10:04.690Z,100269.72
2023-04-27T09:12:32.428Z,100261.97
2023-04-27T09:15:00.850Z,100262.53
2023-04-27T09:17:30.327Z,100258.78
2023-04-27T09:20:10.214Z,100251.03
2023-04-27T09:22:45.988Z,100255.59
2023-04-27T09:25:23.908Z,100252.34
2023-04-27T09:27:51.408Z,100242.31
2023-04-27T09:30:19.594Z,100236.44
2023-04-27T09:32:54.617Z,100241.91
2023-04-27T09:35:23.743Z,100235.56
2023-04-27T09:37:53.885Z,100236.13
2023-04-27T09:40:26.366Z,100233.19
2023-04-27T09:42:54.661Z,100230.59
2023-04-27T09:45:22.267Z,100228.63
2023-04-27T09:47:49.777Z,100229.97
2023-04-27T09:50:17.277Z,100226.28
2023-04-27T09:52:46.149Z,100229.34
2023-04-27T09:55:20.240Z,100226.28
2023-04-27T09:57:55.030Z,100224.28
2023-04-27T10:00:37.200Z,100226.91
2023-04-27T10:03:16.526Z,100223.56
2023-04-27T10:06:07.576Z,100228.69
2023-04-27T10:08:35.750Z,100224.97
2023-04-27T10:11:14.289Z,100223.94
2023-04-27T10:13:53.728Z,100217.91
2023-04-27T10:16:23.371Z,100216.63
2023-04-27T10:18:56.174Z,100219.34
2023-04-27T10:21:24.591Z,100214.94
2023-04-27T10:23:53.186Z,100211.78
2023-04-27T10:26:26.067Z,100209.13
2023-04-27T10:29:05.468Z,100199.94
2023-04-27T10:31:33.377Z,100196.81
2023-04-27T10:34:08.481Z,100193.91
2023-04-27T10:36:37.615Z,100193.88
2023-04-27T10:39:16.154Z,100192.34
2023-04-27T10:41:53.556Z,100182.91
2023-04-27T10:44:25.675Z,100179.47
2023-04-27T10:46:53.720Z,100184.28
2023-04-27T10:49:21.560Z,100171.81
2023-04-27T10:51:50.811Z,100175.53
2023-04-27T10:54:18.676Z,100168.31
2023-04-27T10:56:46.586Z,100171.97
2023-04-27T10:59:15.733Z,100177.38
2023-04-27T11:01:43.318Z,100171.91
2023-04-27T11:04:10.916Z,100163.25
2023-04-27T11:06:45.982Z,100161.44
2023-04-27T11:09:14.041Z,100170.00
2023-04-27T11:11:45.688Z,100165.47
2023-04-27T11:14:21.325Z,100157.41
2023-04-27T11:16:49.425Z,100161.59
2023-04-27T11:19:17.151Z,100163.38
2023-04-27T11:21:45.146Z,100156.97
2023-04-27T11:24:15.146Z,100159.69
2023-04-27T11:26:43.020Z,100154.84
2023-04-27T11:29:13.885Z,100158.94
2023-04-27T11:31:47.465Z,100161.19
2023-04-27T11:34:17.346Z,100159.03
2023-04-27T11:36:44.928Z,100153.50
2023-04-27T11:39:19.410Z,100154.28
2023-04-27T11:41:46.975Z,100158.28
2023-04-27T11:44:14.491Z,100156.16
2023-04-27T11:46:45.815Z,100151.44
2023-04-27T11:49:14.017Z,100156.66
2023-04-27T11:51:41.640Z,100151.63
2023-04-27T11:54:09.440Z,100153.03
2023-04-27T11:56:38.055Z,100139.00
2023-04-27T11:59:05.994Z,100137.88
2023-04-27T12:01:38.115Z,100133.84
2023-04-27T12:04:07.849Z,100139.09
2023-04-27T12:06:35.572Z,100130.81
2023-04-27T12:09:04.041Z,100121.41
2023-04-27T12:11:31.736Z,100131.34
2023-04-27T12:13:59.248Z,100129.25
2023-04-27T12:16:26.880Z,100119.94
2023-04-27T12:18:54.786Z,100115.63
2023-04-27T12:21:23.733Z,100117.03
2023-04-27T12:23:51.684Z,100113.75
2023-04-27T12:26:20.316Z,100107.03
2023-04-27T12:28:47.785Z,100106.13
2023-04-27T12:31:18.628Z,100110.75
2023-04-27T12:33:46.150Z,100102.50
2023-04-27T12:36:13.602Z,100090.66
2023-04-27T12:38:42.745Z,100108.34
2023-04-27T12:41:10.446Z,100095.13
2023-04-27T12:43:38.191Z,100103.63
2023-04-27T12:46:05.818Z,100093.28
2023-04-27T12:48:33.532Z,100101.69
2023-04-27T12:51:01.144Z,100100.75
2023-04-27T12:53:29.212Z,100095.56
2023-04-27T12:56:00.600Z,100096.19
2023-04-27T12:58:28.235Z,100091.91
2023-04-27T13:00:57.567Z,100083.28
2023-04-27T13:03:25.213Z,100084.69
2023-04-27T13:05:52.908Z,100080.97
2023-04-27T13:08:21.330Z,100083.00
2023-04-27T13:10:48.847Z,100075.78
2023-04-27T13:13:17.805Z,100082.63
2023-04-27T13:15:46.310Z,100077.66
2023-04-27T13:18:13.828Z,100082.84
2023-04-27T13:20:44.030Z,100089.22
2023-04-27T13:23:11.753Z,100080.88
2023-04-27T13:25:39.430Z,100088.84
2023-04-27T13:28:07.396Z,100081.03
2023-04-27T13:30:36.453Z,100083.69
2023-04-27T13:33:18.360Z,100082.91
2023-04-27T13:35:49.075Z,100075.09
2023-04-27T13:38:16.609Z,100082.19
2023-04-27T13:40:44.114Z,100081.34
2023-04-27T13:43:11.560Z,100075.72
2023-04-27T13:45:42.372Z,100072.91
2023-04-27T13:48:09.828Z,100078.47
2023-04-27T13:50:37.612Z,100071.28
2023-04-27T13:53:05.056Z,100062.19
2023-04-27T13:55:32.527Z,100061.38
2023-04-27T13:57:59.987Z,100059.41
2023-04-27T14:00:28.691Z,100051.88
2023-04-27T14:02:57.556Z,100053.16
2023-04-27T14:05:25.121Z,100055.31
2023-04-27T14:07:53.413Z,100050.38
2023-04-27T14:10:20.911Z,100048.06
2023-04-27T14:12:48.634Z,100046.16
2023-04-27T14:15:16.183Z,100045.91
2023-04-27T14:17:43.670Z,100049.69
2023-04-27T14:20:12.845Z,100049.34
2023-04-27T14:22:40.412Z,100049.78
2023-04-27T14:25:09.180Z,100048.88
2023-04-27T14:27:36.638Z,100044.13
2023-04-27T14:30:05.227Z,100051.38
2023-04-27T14:32:32.708Z,100050.84
2023-04-27T14:35:00.458Z,100046.00
2023-04-27T14:37:29.224Z,100037.47
2023-04-27T14:39:58.066Z,100036.03
2023-04-27T14:42:25.615Z,100022.56
2023-04-27T14:44:53.101Z,100016.78
2023-04-27T14:47:20.731Z,100022.88
2023-04-27T14:49:48.367Z,100004.88
2023-04-27T14:52:15.801Z,100013.88
2023-04-27T14:54:44.935Z,100014.63
2023-04-27T14:57:12.374Z,100009.25
2023-04-27T14:59:39.841Z,100008.16
2023-04-27T15:02:07.465Z,100005.59
2023-04-27T15:04:36.079Z,100009.78
2023-04-27T15:07:03.636Z,100011.53
2023-04-27T15:09:31.069Z,99998.88
2023-04-27T15:11:59.866Z,99997.69
2023-04-27T15:14:27.331Z,99996.84
2023-04-27T15:16:54.783Z,99989.28
2023-04-27T15:19:22.201Z,99991.63
2023-04-27T15:21:49.895Z,99991.56
2023-04-27T15:24:17.348Z,99994.72
2023-04-27T15:26:44.851Z,99994.78
2023-04-27T15:29:14.251Z,99986.31
2023-04-27T15:31:42.250Z,99991.19
2023-04-27T15:34:09.833Z,99985.56
2023-04-27T15:36:37.299Z,99991.19
2023-04-27T15:39:04.967Z,99985.16
2023-04-27T15:41:32.497Z,99983.78
2023-04-27T15:44:00.023Z,99971.06
2023-04-27T15:46:29.100Z,99973.75
2023-04-27T15:48:56.715Z,99980.75
2023-04-27T15:51:24.235Z,99995.50
2023-04-27T15:53:51.713Z,99979.88
2023-04-27T15:56:19.237Z,99975.16
2023-04-27T15:58:46.813Z,99978.91
2023-04-27T16:01:14.335Z,99980.63
2023-04-27T16:03:43.625Z,99974.38
2023-04-27T16:06:11.667Z,99973.53
2023-04-27T16:08:39.173Z,99969.22
2023-04-27T16:11:06.888Z,99968.25
2023-04-27T16:13:34.436Z,99964.81
2023-04-27T16:16:02.399Z,99955.69
2023-04-27T16:18:30.033Z,99953.09
2023-04-27T16:20:59.499Z,99949.88
2023-04-27T16:23:26.966Z,99951.38
2023-04-27T16:25:54.423Z,99956.34
2023-04-27T16:28:22.056Z,99956.13
2023-04-27T16:30:49.498Z,99957.19
2023-04-27T16:33:18.391Z,99950.22
2023-04-27T16:35:45.886Z,99937.22
2023-04-27T16:38:14.706Z,99959.75
2023-04-27T16:40:42.173Z,99945.38
2023-04-27T16:43:09.661Z,99949.19
2023-04-27T16:45:38.415Z,99951.91
2023-04-27T16:48:06.242Z,99939.94
2023-04-27T16:50:33.966Z,99943.81
2023-04-27T16:53:08.300Z,99942.22
2023-04-27T16:55:37.393Z,99955.28
2023-04-27T16:58:04.896Z,99944.59
2023-04-27T17:00:32.713Z,99944.69
2023-04-27T17:03:00.246Z,99944.72
2023-04-27T17:05:27.820Z,99945.28
2023-04-27T17:07:55.835Z,99934.66
2023-04-27T17:10:23.492Z,99933.06
2023-04-27T17:12:52.576Z,99935.97
2023-04-27T17:15:20.468Z,99928.63
2023-04-27T17:17:47.983Z,99926.28
2023-04-27T17:20:15.708Z,99929.34
2023-04-27T17:22:43.142Z,99929.63
2023-04-27T17:25:11.007Z,99916.53
2023-04-27T17:27:38.678Z,99911.69
2023-04-27T17:30:09.458Z,99906.38
2023-04-27T17:32:37.013Z,99907.97
2023-04-27T17:35:04.707Z,99907.97
2023-04-27T17:37:32.464Z,99900.47
2023-04-27T17:40:00.017Z,99898.25
2023-04-27T17:42:27.990Z,99896.19
2023-04-27T17:44:55.858Z,99894.47
2023-04-27T17:47:25.379Z,99892.72
2023-04-27T17:49:52.884Z,99892.09
2023-04-27T17:52:20.708Z,99889.44
2023-04-27T17:54:48.912Z,99887.31
2023-04-27T17:57:16.342Z,99894.69
2023-04-27T17:59:43.792Z,99882.25
2023-04-27T18:02:11.341Z,99891.34
2023-04-27T18:04:40.210Z,99893.25
2023-04-27T18:07:07.786Z,99878.81
2023-04-27T18:09:35.693Z,99886.34
2023-04-27T18:12:05.895Z,99878.41
2023-04-27T18:14:33.335Z,99869.47
2023-04-27T18:17:00.925Z,99878.97
2023-04-27T18:19:28.352Z,99878.75
2023-04-27T18:21:57.145Z,99874.97
2023-04-27T18:24:24.620Z,99876.09
2023-04-27T18:26:52.200Z,99876.50
2023-04-27T18:29:19.758Z,99880.81
2023-04-27T18:31:47.465Z,99885.31
2023-04-27T18:34:15.231Z,99879.34
2023-04-27T18:36:42.697Z,99875.28
2023-04-27T18:39:11.716Z,99876.31
2023-04-27T18:41:39.161Z,99880.72
2023-04-27T18:44:06.975Z,99881.75
2023-04-27T18:46:34.686Z,99875.38
2023-04-27T18:49:02.482Z,99874.00
2023-04-27T18:51:31.998Z,99877.97
2023-04-27T18:53:59.424Z,99878.19
2023-04-27T18:56:28.225Z,99877.38
2023-04-27T18:58:55.873Z,99873.38
2023-04-27T19:01:23.971Z,99867.16
2023-04-27T19:03:52.175Z,99875.13
2023-04-27T19:06:21.225Z,99869.25
2023-04-27T19:08:49.060Z,99868.09
2023-04-27T19:11:19.249Z,99866.06
2023-04-27T19:13:48.049Z,99869.69
2023-04-27T19:16:16.966Z,99861.59
2023-04-27T19:18:44.575Z,99873.22
2023-04-27T19:21:12.956Z,99869.50
2023-04-27T19:23:41.092Z,99870.88
2023-04-27T19:26:13.107Z,99870.13
2023-04-27T19:28:41.412Z,99869.25
2023-04-27T19:31:10.597Z,99868.31
2023-04-27T19:33:38.131Z,99863.66
2023-04-27T19:36:05.926Z,99868.22
2023-04-27T19:38:34.428Z,99869.00
2023-04-27T19:41:04.133Z,99867.19
2023-04-27T19:43:31.552Z,99874.84
2023-04-27T19:45:59.014Z,99876.84
2023-04-27T19:48:28.013Z,99869.34
2023-04-27T19:50:55.662Z,99865.53
2023-04-27T19:53:23.134Z,99870.78
2023-04-27T19:55:50.900Z,99865.66
2023-04-27T19:58:18.565Z,99865.44
2023-04-27T20:00:46.385Z,99857.38
2023-04-27T20:03:14.252Z,99849.78
2023-04-27T20:05:44.668Z,99847.44
2023-04-27T20:08:12.559Z,99857.81
2023-04-27T20:10:40.913Z,99848.41
2023-04-27T20:13:08.378Z,99851.59
2023-04-27T20:15:37.486Z,99855.19
2023-04-27T20:18:05.184Z,99848.13
2023-04-27T20:20:32.691Z,99855.50
2023-04-27T20:23:01.640Z,99853.50
2023-04-27T20:25:29.224Z,99853.91
2023-04-27T20:27:56.677Z,99850.81
2023-04-27T20:30:24.146Z,99843.31
2023-04-27T20:32:51.678Z,99838.81
2023-04-27T20:35:19.133Z,99831.94
2023-04-27T20:37:47.029Z,99827.97
2023-04-27T20:40:17.978Z,99819.88
2023-04-27T20:42:46.189Z,99823.91
2023-04-27T20:45:13.709Z,99827.03
2023-04-27T20:47:41.924Z,99825.56
2023-04-27T20:50:09.638Z,99820.75
2023-04-27T20:52:37.181Z,99815.25
2023-04-27T20:55:05.198Z,99814.69
2023-04-27T20:57:34.058Z,99814.34
2023-04-27T21:00:01.616Z,99814.78
2023-04-27T21:02:29.225Z,99814.34
2023-04-27T21:04:56.950Z,99807.03
2023-04-27T21:07:24.512Z,99802.38
2023-04-27T21:09:51.952Z,99794.78
2023-04-27T21:12:19.423Z,99792.13
2023-04-27T21:14:48.182Z,99791.41
2023-04-27T21:17:15.874Z,99792.44
2023-04-27T21:19:43.345Z,99786.41
2023-04-27T21:22:10.788Z,99780.38
2023-04-27T21:24:38.198Z,99780.13
2023-04-27T21:27:05.802Z,99773.16
2023-04-27T21:29:35.357Z,99772.22
2023-04-27T21:32:04.632Z,99767.63
2023-04-27T21:34:32.100Z,99752.81
2023-04-27T21:36:59.609Z,99746.53
2023-04-27T21:39:27.124Z,99741.72
2023-04-27T21:41:54.851Z,99739.72
2023-04-27T21:44:22.579Z,99735.38
2023-04-27T21:46:50.421Z,99735.84
2023-04-27T21:49:19.313Z,99727.97
2023-04-27T21:51:46.789Z,99726.03
2023-04-27T21:54:14.485Z,99724.00
2023-04-27T21:56:46.866Z,99715.91
2023-04-27T21:59:14.344Z,99715.75
2023-04-27T22:01:41.926Z,99712.34
2023-04-27T22:04:27.162Z,99715.75
2023-04-27T22:06:56.080Z,99703.81
2023-04-27T22:09:23.516Z,99701.72
2023-04-27T22:11:51.256Z,99692.16
2023-04-27T22:14:18.990Z,99679.50
2023-04-27T22:16:46.401Z,99679.28
2023-04-27T22:19:13.832Z,99676.44
2023-04-27T22:21:41.353Z,99674.41
2023-04-27T22:24:10.116Z,99673.84
2023-04-27T22:26:37.659Z,99662.88
2023-04-27T22:29:05.104Z,99659.03
2023-04-27T22:31:33.155Z,99669.66
2023-04-27T22:34:00.712Z,99663.88
2023-04-27T22:36:33.287Z,99660.03
2023-04-27T22:39:04.928Z,99663.13
2023-04-27T22:41:33.790Z,99659.56
2023-04-27T22:44:03.605Z,99660.00
2023-04-27T22:46:31.182Z,99654.53
2023-04-27T22:49:01.324Z,99646.47
2023-04-27T22:51:28.779Z,99647.50
2023-04-27T22:53:56.208Z,99648.25
2023-04-27T22:56:23.689Z,99644.88
2023-04-27T22:58:55.069Z,99651.56
2023-04-27T23:01:22.558Z,99643.59
2023-04-27T23:03:50.054Z,99642.97
2023-04-27T23:06:17.532Z,99646.25
2023-04-27T23:08:46.946Z,99649.94
2023-04-27T23:11:15.281Z,99654.34
2023-04-27T23:13:42.879Z,99648.53
2023-04-27T23:16:11.914Z,99633.19
2023-04-27T23:18:39.378Z,99630.25
2023-04-27T23:21:06.918Z,99641.31
2023-04-27T23:23:34.363Z,99631.34
2023-04-27T23:26:02.335Z,99626.41
2023-04-27T23:28:29.780Z,99625.25
2023-04-27T23:30:58.125Z,99629.03
2023-04-27T23:33:26.998Z,99619.53
2023-04-27T23:35:56.072Z,99622.88
2023-04-27T23:38:23.923Z,99615.09
2023-04-27T23:40:53.677Z,99616.50
2023-04-27T23:43:24.182Z,99611.25
2023-04-27T23:45:52.609Z,99612.06
2023-04-27T23:48:20.583Z,99598.72
2023-04-27T23:50:49.542Z,99603.16
2023-04-27T23:53:18.645Z,99602.06
2023-04-27T23:55:46.071Z,99595.44
2023-04-27T23:58:13.487Z,99602.94
